Time;durP1;ratioP1;P1;durP2;ratioP2;P2;SDS_P1;SDS_P2;PMS_P1;PMS_P2;Temp;Humidity;BMP_temperature;BMP_pressure;BME280_temperature;BME280_humidity;BME280_pressure;Samples;Min_cycle;Max_cycle;Signal;HPM_P1;HPM_P2
2021/01/24 00:07:13;;;;;;;1999.90;999.90;;;;;;;3.12;73.84;99155.66;15749048;28;20048;-62
2021/01/24 00:15:26;;;;;;;1999.90;999.90;;;;;;;3.10;74.52;99157.91;15730565;28;20048;-62
2021/01/24 00:23:04;;;;;;;1999.90;999.90;;;;;;;3.27;74.36;99146.94;15711772;28;20469;-62
2021/01/24 00:30:37;;;;;;;1999.90;999.90;;;;;;;2.99;75.40;99145.56;15747356;28;20465;-60
2021/01/24 00:38:08;;;;;;;1999.90;999.90;;;;;;;3.21;74.90;99156.47;15698124;28;20061;-60
2021/01/24 00:45:41;;;;;;;1999.90;999.90;;;;;;;3.61;74.21;99173.72;15728836;28;20040;-62
2021/01/24 00:53:13;;;;;;;1999.90;999.90;;;;;;;3.79;72.70;99176.47;15727670;28;20094;-58
2021/01/24 01:00:45;;;;;;;1999.90;999.90;;;;;;;3.87;72.34;99170.97;15727682;28;20044;-59
2021/01/24 01:08:17;;;;;;;1999.90;999.90;;;;;;;3.62;72.83;99164.28;15727032;28;20044;-58
2021/01/24 01:15:49;;;;;;;1999.90;999.90;;;;;;;3.42;73.47;99163.00;15744671;28;20051;-59
2021/01/24 01:23:24;;;;;;;1999.90;999.90;;;;;;;3.64;73.42;99159.25;15726668;28;20136;-61
2021/01/24 01:30:57;;;;;;;1999.90;999.90;;;;;;;3.93;72.06;99157.78;15743799;28;20543;-60
2021/01/24 01:38:28;;;;;;;1999.90;999.90;;;;;;;3.61;73.49;99161.88;15743538;28;20044;-62
2021/01/24 01:46:01;;;;;;;1999.90;999.90;;;;;;;3.62;73.10;99155.22;15743405;28;20140;-58
2021/01/24 01:53:36;;;;;;;1999.90;999.90;;;;;;;3.52;73.59;99167.38;15724730;28;20113;-59
2021/01/24 02:01:15;;;;;;;1999.90;999.90;;;;;;;3.34;74.02;99168.53;15723844;28;20207;-60
2021/01/24 02:08:54;;;;;;;1999.90;999.90;;;;;;;3.78;72.83;99161.88;15741842;28;20040;-57
2021/01/24 02:16:28;;;;;;;1999.90;999.90;;;;;;;3.81;72.31;99163.97;15723543;28;20051;-59
2021/01/24 02:24:02;;;;;;;1999.90;999.90;;;;;;;3.55;73.79;99160.44;15741132;28;20045;-61
2021/01/24 02:31:37;;;;;;;1999.90;999.90;;;;;;;3.55;73.50;99154.91;15723020;28;20492;-61
2021/01/24 02:39:09;;;;;;;1999.90;999.90;;;;;;;3.27;75.38;99148.88;15723355;28;20121;-62
2021/01/24 02:46:41;;;;;;;1999.90;999.90;;;;;;;3.15;75.06;99144.00;15740136;28;20132;-62
2021/01/24 02:54:15;;;;;;;1999.90;999.90;;;;;;;3.30;75.13;99149.03;15739540;28;20133;-58
2021/01/24 03:01:47;;;;;;;1999.90;999.90;;;;;;;3.43;74.23;99141.75;15739474;28;20083;-58
2021/01/24 03:09:19;;;;;;;1999.90;999.90;;;;;;;3.22;75.29;99132.47;15721471;28;20068;-60
2021/01/24 03:16:57;;;;;;;1999.90;999.90;;;;;;;3.38;74.44;99123.41;15739094;28;20048;-64
2021/01/24 03:24:32;;;;;;;1999.90;999.90;;;;;;;3.35;74.92;99126.84;15720059;28;20439;-61
2021/01/24 03:32:05;;;;;;;1999.90;999.90;;;;;;;3.41;74.95;99120.00;15737406;28;20044;-61
2021/01/24 03:39:37;;;;;;;1999.90;999.90;;;;;;;3.45;74.37;99120.19;15697782;28;20091;-60
2021/01/24 03:47:11;;;;;;;1999.90;999.90;;;;;;;3.26;75.31;99122.44;15738160;28;20048;-61
2021/01/24 03:54:54;;;;;;;1999.90;999.90;;;;;;;3.45;75.92;99120.19;15719760;28;20048;-59
2021/01/24 04:02:28;;;;;;;1999.90;999.90;;;;;;;3.23;76.37;99123.06;15719256;28;20449;-61
2021/01/24 04:10:01;;;;;;;1999.90;999.90;;;;;;;3.32;76.25;99116.44;15737667;28;20037;-60
2021/01/24 04:17:33;;;;;;;1999.90;999.90;;;;;;;3.69;75.69;99111.41;15719550;28;20051;-59
2021/01/24 04:25:08;;;;;;;1999.90;999.90;;;;;;;3.61;75.58;99110.28;15784418;22;20044;-56
2021/01/24 04:32:41;;;;;;;1999.90;999.90;;;;;;;3.20;76.57;99105.25;15791787;28;20429;-54
2021/01/24 04:40:13;;;;;;;1999.90;999.90;;;;;;;3.30;76.97;99099.41;15782588;28;20504;-52
2021/01/24 04:47:46;;;;;;;1999.90;999.90;;;;;;;3.37;76.80;99090.66;15750913;28;20087;-50
2021/01/24 04:55:19;;;;;;;1999.90;999.90;;;;;;;3.11;77.56;99082.38;15744900;28;20128;-56
2021/01/24 05:02:51;;;;;;;1999.90;999.90;;;;;;;3.05;78.27;99089.19;15767897;28;20115;-55
2021/01/24 05:10:24;;;;;;;1999.90;999.90;;;;;;;3.01;78.35;99075.22;15778337;28;20365;-55
2021/01/24 05:17:59;;;;;;;1999.90;999.90;;;;;;;3.04;78.72;99065.53;15763103;28;20149;-55
2021/01/24 05:25:32;;;;;;;1999.90;999.90;;;;;;;2.96;79.28;99061.63;15752668;28;20045;-57
2021/01/24 05:33:05;;;;;;;1999.90;999.90;;;;;;;3.03;78.83;99084.00;15783340;28;20075;-57
2021/01/24 05:40:38;;;;;;;1999.90;999.90;;;;;;;3.13;78.20;99072.66;15756701;28;20076;-53
2021/01/24 05:48:15;;;;;;;1999.90;999.90;;;;;;;3.13;78.56;99080.13;15742227;28;20278;-54
2021/01/24 05:55:47;;;;;;;1999.90;999.90;;;;;;;3.27;78.00;99088.22;15769703;28;20323;-57
2021/01/24 06:03:20;;;;;;;1999.90;999.90;;;;;;;3.15;78.46;99075.91;15782599;28;20350;-57
2021/01/24 06:10:55;;;;;;;1999.90;999.90;;;;;;;3.17;78.79;99092.94;15771549;28;20146;-54
2021/01/24 06:18:36;;;;;;;1999.90;999.90;;;;;;;3.32;77.91;99088.06;15758389;28;20051;-54
2021/01/24 06:26:11;;;;;;;1999.90;999.90;;;;;;;3.28;78.07;99087.91;15768054;28;20052;-58
2021/01/24 06:33:44;;;;;;;1999.90;999.90;;;;;;;3.10;78.66;99083.50;15780458;28;20045;-56
2021/01/24 06:41:43;;;;;;;1999.90;999.90;;;;;;;3.07;79.55;99098.75;15770050;28;20071;-56
2021/01/24 06:49:43;;;;;;;1999.90;999.90;;;;;;;3.38;78.39;99101.38;15757607;28;20040;-55
2021/01/24 06:57:16;;;;;;;1999.90;999.90;;;;;;;3.22;78.79;99094.69;15760651;28;20097;-55
2021/01/24 07:05:08;;;;;;;1999.90;999.90;;;;;;;3.25;78.79;99091.31;15778972;28;20040;-54
2021/01/24 07:12:43;;;;;;;1999.90;999.90;;;;;;;3.23;78.72;99101.88;15777145;28;20044;-58
2021/01/24 07:20:15;;;;;;;1999.90;999.90;;;;;;;3.24;78.62;99110.94;15755976;28;20036;-55
2021/01/24 07:27:53;;;;;;;1999.90;999.90;;;;;;;3.30;78.91;99113.19;15739375;28;20079;-59
2021/01/24 07:35:26;;;;;;;1999.90;999.90;;;;;;;3.58;78.22;99118.41;15797181;28;20050;-58
2021/01/24 07:42:58;;;;;;;1999.90;999.90;;;;;;;3.61;77.33;99112.22;15737021;28;20048;-53
2021/01/24 07:50:31;;;;;;;1999.90;999.90;;;;;;;3.57;77.38;99119.53;15796630;28;20116;-57
2021/01/24 07:58:02;;;;;;;1999.90;999.90;;;;;;;3.53;77.79;99122.13;15746798;28;20135;-56
2021/01/24 08:05:35;;;;;;;1999.90;999.90;;;;;;;3.77;76.88;99118.88;15770725;28;20048;-55
2021/01/24 08:13:15;;;;;;;1999.90;999.90;;;;;;;3.63;77.54;99127.31;15789651;28;20089;-53
2021/01/24 08:20:49;;;;;;;1999.90;999.90;;;;;;;3.72;77.31;99119.84;15769178;28;20047;-53
2021/01/24 08:28:21;;;;;;;1999.90;999.90;;;;;;;3.82;76.83;99124.22;15770618;28;20093;-55
2021/01/24 08:36:09;;;;;;;;;;;;;;;3.88;77.29;99122.91;15767208;28;20116;-58
2021/01/24 08:43:41;;;;;;;1999.90;999.90;;;;;;;3.80;76.95;99115.44;15731220;28;20011;-59
2021/01/24 08:51:15;;;;;;;1999.90;999.90;;;;;;;3.76;77.91;99120.81;15786491;28;20063;-56
2021/01/24 08:58:47;;;;;;;1999.90;999.90;;;;;;;3.82;77.72;99123.41;15769672;28;20044;-57
2021/01/24 09:06:20;;;;;;;1999.90;999.90;;;;;;;3.79;77.95;99129.56;15765479;28;20458;-56
2021/01/24 09:13:53;;;;;;;1999.90;999.90;;;;;;;3.84;77.97;99138.47;15764012;28;20032;-57
2021/01/24 09:21:25;;;;;;;1999.90;999.90;;;;;;;3.96;77.46;99124.84;15784682;28;20062;-56
2021/01/24 09:28:57;;;;;;;1999.90;999.90;;;;;;;3.81;77.75;99130.06;15751450;28;20047;-54
2021/01/24 09:36:30;;;;;;;1999.90;999.90;;;;;;;4.27;77.09;99134.81;15778029;28;20032;-55
2021/01/24 09:44:03;;;;;;;1999.90;999.90;;;;;;;4.16;77.23;99137.13;15787530;28;20374;-56
2021/01/24 09:51:36;;;;;;;1999.90;999.90;;;;;;;4.17;76.83;99133.25;15776896;28;20047;-53
2021/01/24 09:59:08;;;;;;;1999.90;999.90;;;;;;;4.13;76.22;99131.44;15779769;28;20082;-56
2021/01/24 10:06:40;;;;;;;1999.90;999.90;;;;;;;4.44;75.43;99128.44;15754396;28;20340;-58
2021/01/24 10:14:14;;;;;;;1999.90;999.90;;;;;;;4.14;76.51;99133.06;15773809;28;20454;-58
2021/01/24 10:21:47;;;;;;;1999.90;999.90;;;;;;;4.80;75.69;99136.25;15793473;23;20280;-62
2021/01/24 10:29:18;;;;;;;1999.90;999.90;;;;;;;4.44;76.35;99132.00;15788107;28;20411;-62
2021/01/24 10:36:53;;;;;;;1999.90;999.90;;;;;;;4.77;74.64;99140.47;15787473;28;20059;-61
2021/01/24 10:44:25;;;;;;;1999.90;999.90;;;;;;;4.31;75.83;99136.59;15787513;28;20388;-64
2021/01/24 10:51:58;;;;;;;1999.90;999.90;;;;;;;4.23;76.41;99137.44;15805696;28;20135;-63
2021/01/24 10:59:31;;;;;;;1999.90;999.90;;;;;;;4.09;76.88;99128.56;15804406;28;20133;-64
2021/01/24 11:07:04;;;;;;;1999.90;999.90;;;;;;;4.18;77.77;99137.63;15803737;28;20090;-64
2021/01/24 11:14:37;;;;;;;1999.90;999.90;;;;;;;3.93;78.84;99141.22;15804179;28;20032;-63
2021/01/24 11:22:09;;;;;;;1999.90;999.90;;;;;;;3.91;77.58;99132.47;15804750;27;20119;-63
2021/01/24 11:29:42;;;;;;;1999.90;999.90;;;;;;;3.87;78.66;99131.53;15799540;28;20545;-62
2021/01/24 11:37:15;;;;;;;1999.90;999.90;;;;;;;4.17;78.14;99132.41;15800438;28;20079;-61
2021/01/24 11:44:47;;;;;;;1999.90;999.90;;;;;;;4.11;77.70;99128.22;15815441;28;20039;-63
2021/01/24 11:52:21;;;;;;;1999.90;999.90;;;;;;;4.16;77.89;99128.03;15803386;28;20044;-60
2021/01/24 11:59:52;;;;;;;1999.90;999.90;;;;;;;4.39;77.52;99128.63;15803084;28;20047;-61
2021/01/24 12:07:25;;;;;;;1999.90;999.90;;;;;;;4.58;76.80;99123.50;15815447;28;20048;-60
2021/01/24 12:14:56;;;;;;;1999.90;999.90;;;;;;;4.63;77.14;99118.59;15794690;28;20040;-59
2021/01/24 12:22:29;;;;;;;1999.90;999.90;;;;;;;4.68;77.04;99130.59;15794172;28;20407;-59
2021/01/24 12:30:00;;;;;;;1999.90;999.90;;;;;;;4.42;77.46;99126.00;15792294;28;20047;-60
2021/01/24 12:37:33;;;;;;;1999.90;999.90;;;;;;;4.27;77.68;99118.25;15810054;28;20071;-61
2021/01/24 12:45:06;;;;;;;1999.90;999.90;;;;;;;4.53;76.89;99120.94;15800948;28;20036;-57
2021/01/24 12:52:38;;;;;;;1999.90;999.90;;;;;;;4.56;76.78;99125.78;15772170;28;20067;-61
2021/01/24 13:00:11;;;;;;;1999.90;999.90;;;;;;;4.35;77.58;99125.69;15776326;28;20040;-63
2021/01/24 13:07:45;;;;;;;1999.90;999.90;;;;;;;4.60;76.89;99133.09;15772565;28;20151;-61
2021/01/24 13:15:17;;;;;;;1999.90;999.90;;;;;;;4.59;76.76;99127.91;15813363;28;20036;-62
2021/01/24 13:22:50;;;;;;;1999.90;999.90;;;;;;;4.62;76.67;99136.31;15802260;28;20081;-63
2021/01/24 13:30:22;;;;;;;1999.90;999.90;;;;;;;4.62;76.58;99152.91;15806683;28;20143;-62
2021/01/24 13:37:55;;;;;;;1999.90;999.90;;;;;;;4.66;76.58;99149.47;15807337;28;20093;-62
2021/01/24 13:45:29;;;;;;;1999.90;999.90;;;;;;;4.46;77.68;99151.00;15765595;28;20076;-61
2021/01/24 13:53:02;;;;;;;1999.90;999.90;;;;;;;4.48;78.11;99159.75;15770585;28;20045;-63
2021/01/24 14:00:33;;;;;;;1999.90;999.90;;;;;;;4.74;76.66;99162.44;15757748;28;20040;-62
2021/01/24 14:08:06;;;;;;;1999.90;999.90;;;;;;;4.62;77.32;99163.13;15760960;28;20508;-62
2021/01/24 14:15:38;;;;;;;1999.90;999.90;;;;;;;4.51;77.24;99161.88;15787104;28;20051;-63
2021/01/24 14:23:11;;;;;;;1999.90;999.90;;;;;;;4.53;77.40;99174.22;15788626;28;20048;-63
2021/01/24 14:30:44;;;;;;;1999.90;999.90;;;;;;;4.70;76.65;99165.06;15805785;28;20044;-62
2021/01/24 14:38:16;;;;;;;1999.90;999.90;;;;;;;4.63;76.46;99175.81;15787767;28;20192;-62
2021/01/24 14:45:48;;;;;;;1999.90;999.90;;;;;;;4.62;77.11;99182.47;15770511;28;20070;-62
2021/01/24 14:53:20;;;;;;;1999.90;999.90;;;;;;;4.88;76.33;99193.41;15804573;28;20032;-62
2021/01/24 15:00:53;;;;;;;1999.90;999.90;;;;;;;4.93;76.24;99193.25;15720861;28;20072;-61
2021/01/24 15:08:25;;;;;;;1999.90;999.90;;;;;;;5.02;76.65;99191.25;15784296;28;20044;-60
2021/01/24 15:15:57;;;;;;;1999.90;999.90;;;;;;;5.12;75.32;99207.47;15786218;28;20139;-61
2021/01/24 15:23:34;;;;;;;1999.90;999.90;;;;;;;5.72;73.60;99200.72;15802850;28;20120;-62
2021/01/24 15:31:06;;;;;;;1999.90;999.90;;;;;;;5.32;74.96;99208.66;15795456;28;20036;-62
2021/01/24 15:38:39;;;;;;;1999.90;999.90;;;;;;;5.17;75.54;99212.78;15795389;28;20062;-62
2021/01/24 15:46:11;;;;;;;1999.90;999.90;;;;;;;5.22;75.42;99223.69;15801375;28;20040;-62
2021/01/24 15:53:44;;;;;;;1999.90;999.90;;;;;;;5.64;74.10;99225.69;15805073;28;20036;-61
2021/01/24 16:01:17;;;;;;;1999.90;999.90;;;;;;;5.82;73.50;99237.44;15807025;28;20040;-62
2021/01/24 16:08:49;;;;;;;1999.90;999.90;;;;;;;5.92;72.61;99234.28;15806213;28;20056;-62
2021/01/24 16:16:21;;;;;;;1999.90;999.90;;;;;;;5.75;73.21;99240.75;15810404;28;20047;-62
2021/01/24 16:23:56;;;;;;;1999.90;999.90;;;;;;;5.51;73.98;99244.16;15822848;22;20051;-57
2021/01/24 16:31:27;;;;;;;1999.90;999.90;;;;;;;5.91;73.04;99263.94;15762277;28;20045;-53
2021/01/24 16:39:00;;;;;;;1999.90;999.90;;;;;;;5.81;72.85;99261.53;15744256;28;20135;-55
2021/01/24 16:46:35;;;;;;;1999.90;999.90;;;;;;;5.88;73.01;99249.94;15744815;28;20045;-58
2021/01/24 16:54:08;;;;;;;1999.90;999.90;;;;;;;5.89;71.52;99262.63;15744032;28;20044;-57
2021/01/24 17:01:40;;;;;;;1999.90;999.90;;;;;;;5.88;72.55;99258.25;15708780;28;20415;-58
2021/01/24 17:09:13;;;;;;;1999.90;999.90;;;;;;;5.83;72.47;99262.00;15725174;28;20131;-58
2021/01/24 17:16:47;;;;;;;1999.90;999.90;;;;;;;5.89;72.19;99266.22;15742434;28;20512;-59
2021/01/24 17:24:20;;;;;;;1999.90;999.90;;;;;;;5.90;72.02;99283.63;15723031;28;20048;-56
2021/01/24 17:31:52;;;;;;;1999.90;999.90;;;;;;;6.05;71.65;99274.75;15741339;28;20069;-58
2021/01/24 17:39:24;;;;;;;1999.90;999.90;;;;;;;5.90;71.41;99281.69;15741500;28;20476;-58
2021/01/24 17:46:56;;;;;;;1999.90;999.90;;;;;;;6.08;70.98;99288.75;15722203;28;20040;-59
2021/01/24 17:54:29;;;;;;;1999.90;999.90;;;;;;;6.20;71.43;99289.94;15740506;28;20115;-59
2021/01/24 18:02:03;;;;;;;1999.90;999.90;;;;;;;6.06;70.75;99295.78;15700544;28;20079;-59
2021/01/24 18:09:36;;;;;;;1999.90;999.90;;;;;;;5.66;71.78;99304.47;15701910;28;20052;-59
2021/01/24 18:17:08;;;;;;;1999.90;999.90;;;;;;;5.92;71.51;99307.09;15735903;28;20247;-59
2021/01/24 18:24:43;;;;;;;1999.90;999.90;;;;;;;6.03;71.31;99313.03;15735052;28;20183;-58
2021/01/24 18:32:15;;;;;;;1999.90;999.90;;;;;;;5.93;71.40;99318.97;15717491;28;20561;-57
2021/01/24 18:39:47;;;;;;;1999.90;999.90;;;;;;;5.85;70.99;99315.09;15735340;28;20119;-58
2021/01/24 18:47:19;;;;;;;1999.90;999.90;;;;;;;5.70;71.80;99315.66;15733943;28;20052;-59
2021/01/24 18:54:52;;;;;;;1999.90;999.90;;;;;;;5.53;72.34;99322.13;15735983;28;20097;-56
2021/01/24 19:02:23;;;;;;;1999.90;999.90;;;;;;;5.71;71.29;99322.81;15717581;28;20048;-58
2021/01/24 19:09:56;;;;;;;1999.90;999.90;;;;;;;5.61;71.43;99328.72;15735737;28;20040;-61
2021/01/24 19:17:28;;;;;;;1999.90;999.90;;;;;;;5.49;71.55;99335.78;15736121;28;20037;-55
2021/01/24 19:25:00;;;;;;;1999.90;999.90;;;;;;;5.28;72.65;99339.63;15735271;28;20131;-56
2021/01/24 19:32:32;;;;;;;1999.90;999.90;;;;;;;5.40;71.89;99336.97;15718704;28;20505;-59
2021/01/24 19:40:08;;;;;;;1999.90;999.90;;;;;;;5.60;70.61;99343.72;15736038;28;20152;-55
2021/01/24 19:47:39;;;;;;;1999.90;999.90;;;;;;;5.69;70.91;99350.03;15735486;28;20076;-53
2021/01/24 19:55:13;;;;;;;1999.90;999.90;;;;;;;5.53;71.95;99355.31;15746979;28;20517;-57
2021/01/24 20:02:45;;;;;;;1999.90;999.90;;;;;;;5.40;71.52;99372.94;15730137;28;20059;-56
2021/01/24 20:10:18;;;;;;;1999.90;999.90;;;;;;;5.47;71.99;99374.03;15728763;28;20102;-56
2021/01/24 20:17:49;;;;;;;1999.90;999.90;;;;;;;5.38;71.68;99383.53;15747160;28;20429;-56
2021/01/24 20:25:22;;;;;;;1999.90;999.90;;;;;;;5.34;72.06;99391.69;15728039;28;20045;-58
2021/01/24 20:32:55;;;;;;;1999.90;999.90;;;;;;;5.42;72.57;99390.84;15745247;28;20049;-58
2021/01/24 20:40:30;;;;;;;1999.90;999.90;;;;;;;5.45;72.29;99398.47;15744807;28;20517;-58
2021/01/24 20:48:02;;;;;;;1999.90;999.90;;;;;;;5.39;71.74;99390.69;15710768;28;20094;-59
2021/01/24 20:55:39;;;;;;;1999.90;999.90;;;;;;;5.46;71.94;99385.44;15744580;28;20036;-56
2021/01/24 21:03:10;;;;;;;1999.90;999.90;;;;;;;5.30;73.12;99376.88;15726542;28;20052;-59
2021/01/24 21:10:43;;;;;;;1999.90;999.90;;;;;;;5.45;71.45;99379.09;15744331;28;20109;-57
2021/01/24 21:18:15;;;;;;;1999.90;999.90;;;;;;;5.50;71.30;99386.41;15746357;28;20509;-56
2021/01/24 21:25:49;;;;;;;;;;;;;;;5.48;71.11;99397.00;15743902;28;20263;-60
2021/01/24 21:33:21;;;;;;;1999.90;999.90;;;;;;;5.01;73.08;99404.44;15745052;28;20381;-58
2021/01/24 21:40:54;;;;;;;1999.90;999.90;;;;;;;5.08;73.21;99413.03;15741543;28;20052;-59
2021/01/24 21:48:26;;;;;;;1999.90;999.90;;;;;;;5.32;72.84;99415.28;15739632;28;20036;-54
2021/01/24 21:55:58;;;;;;;1999.90;999.90;;;;;;;5.13;72.86;99429.47;15740203;28;20040;-59
2021/01/24 22:03:30;;;;;;;1999.90;999.90;;;;;;;5.12;73.46;99436.16;15737503;28;20048;-59
2021/01/24 22:11:05;;;;;;;1999.90;999.90;;;;;;;5.10;73.36;99436.44;15739321;28;20073;-59
2021/01/24 22:18:37;;;;;;;1999.90;999.90;;;;;;;5.14;73.49;99429.13;15720708;28;20095;-59
2021/01/24 22:26:09;;;;;;;1999.90;999.90;;;;;;;4.98;73.70;99414.19;15720556;28;20143;-54
2021/01/24 22:33:41;;;;;;;1999.90;999.90;;;;;;;5.20;73.17;99416.75;15703927;28;20041;-51
2021/01/24 22:41:13;;;;;;;1999.90;999.90;;;;;;;5.28;73.23;99417.06;15737616;28;20365;-56
2021/01/24 22:48:45;;;;;;;1999.90;999.90;;;;;;;5.29;73.21;99427.78;15737636;28;20040;-52
2021/01/24 22:56:17;;;;;;;1999.90;999.90;;;;;;;5.19;73.56;99434.47;15737132;28;20143;-56
2021/01/24 23:03:49;;;;;;;1999.90;999.90;;;;;;;5.08;73.54;99446.22;15735795;28;20053;-54
2021/01/24 23:11:22;;;;;;;1999.90;999.90;;;;;;;5.06;73.42;99438.25;15736284;28;20068;-52
2021/01/24 23:18:53;;;;;;;1999.90;999.90;;;;;;;4.93;73.46;99444.78;15737309;28;20566;-55
2021/01/24 23:26:26;;;;;;;1999.90;999.90;;;;;;;5.05;73.82;99441.34;15724073;28;20516;-52
2021/01/24 23:33:58;;;;;;;1999.90;999.90;;;;;;;4.84;74.46;99438.44;15735646;28;20044;-54
2021/01/24 23:41:30;;;;;;;1999.90;999.90;;;;;;;4.68;75.18;99451.09;15735776;28;20122;-53
2021/01/24 23:49:02;;;;;;;1999.90;999.90;;;;;;;4.75;74.64;99451.44;15736327;28;20075;-55
2021/01/24 23:56:34;;;;;;;1999.90;999.90;;;;;;;4.98;73.94;99452.88;15734965;28;20095;-53
